createdAt,value
2023-01-04T00:01:00.852Z,19.39
2023-01-04T00:02:02.942Z,19.04
2023-01-04T00:03:04.883Z,19.17
2023-01-04T00:04:07.139Z,19.04
2023-01-04T00:05:09.173Z,18.88
2023-01-04T00:06:13.969Z,19.49
2023-01-04T00:07:16.097Z,19.54
2023-01-04T00:08:17.899Z,19.62
2023-01-04T00:09:19.872Z,19.56
2023-01-04T00:10:21.715Z,19.55
2023-01-04T00:11:24.308Z,19.69
2023-01-04T00:12:26.299Z,18.98
2023-01-04T00:13:28.415Z,19.01
2023-01-04T00:14:30.215Z,19.41
2023-01-04T00:15:32.195Z,19.16
2023-01-04T00:16:34.098Z,19.51
2023-01-04T00:17:35.897Z,19.17
2023-01-04T00:18:38.052Z,19.52
2023-01-04T00:19:40.362Z,19.47
2023-01-04T00:20:42.214Z,18.94
2023-01-04T00:21:44.059Z,19.29
2023-01-04T00:22:45.813Z,19.33
2023-01-04T00:23:50.116Z,19.47
2023-01-04T00:24:51.882Z,19.32
2023-01-04T00:25:53.708Z,19.50
2023-01-04T00:26:55.599Z,18.93
2023-01-04T00:27:57.928Z,18.82
2023-01-04T00:29:01.729Z,18.84
2023-01-04T00:30:03.784Z,19.33
2023-01-04T00:31:08.720Z,19.11
2023-01-04T00:32:10.601Z,19.36
2023-01-04T00:33:12.372Z,19.39
2023-01-04T00:34:16.015Z,19.22
2023-01-04T00:35:43.559Z,19.53
2023-01-04T00:36:39.762Z,19.21
2023-01-04T00:37:44.585Z,19.01
2023-01-04T00:39:07.643Z,19.44
2023-01-04T00:40:10.811Z,18.98
2023-01-04T00:41:34.330Z,18.85
2023-01-04T00:42:35.387Z,19.25
2023-01-04T00:43:37.174Z,18.91
2023-01-04T00:44:39.101Z,19.25
2023-01-04T00:45:43.746Z,18.84
2023-01-04T00:46:45.716Z,19.12
2023-01-04T00:47:47.553Z,19.04
2023-01-04T00:48:49.481Z,18.94
2023-01-04T00:49:52.023Z,19.04
2023-01-04T00:50:53.880Z,19.20
2023-01-04T00:51:55.864Z,19.11
2023-01-04T00:52:57.621Z,18.62
2023-01-04T00:54:04.058Z,19.14
2023-01-04T00:55:06.348Z,18.88
2023-01-04T00:56:08.122Z,18.84
2023-01-04T00:57:09.897Z,19.15
2023-01-04T00:58:12.357Z,18.81
2023-01-04T00:59:16.971Z,18.77
2023-01-04T01:00:18.937Z,19.31
2023-01-04T01:01:20.866Z,19.17
2023-01-04T01:02:22.962Z,19.23
2023-01-04T01:03:25.352Z,19.21
2023-01-04T01:04:27.352Z,19.29
2023-01-04T01:05:29.254Z,18.98
2023-01-04T01:06:33.646Z,19.19
2023-01-04T01:07:35.482Z,19.19
2023-01-04T01:08:37.491Z,19.28
2023-01-04T01:09:39.258Z,19.42
2023-01-04T01:10:41.085Z,19.17
2023-01-04T01:11:43.054Z,19.09
2023-01-04T01:12:45.001Z,19.20
2023-01-04T01:13:47.731Z,18.94
2023-01-04T01:14:49.513Z,19.46
2023-01-04T01:15:51.451Z,18.88
2023-01-04T01:16:57.763Z,18.91
2023-01-04T01:18:00.217Z,19.22
2023-01-04T01:19:02.076Z,19.11
2023-01-04T01:20:05.801Z,19.19
2023-01-04T01:21:10.841Z,19.05
2023-01-04T01:22:12.636Z,19.25
2023-01-04T01:23:15.676Z,19.57
2023-01-04T01:24:19.762Z,19.43
2023-01-04T01:25:21.621Z,19.19
2023-01-04T01:26:25.500Z,19.51
2023-01-04T01:27:28.538Z,19.56
2023-01-04T01:28:31.809Z,19.38
2023-01-04T01:29:33.753Z,19.69
2023-01-04T01:30:40.625Z,19.12
2023-01-04T01:31:42.658Z,19.25
2023-01-04T01:32:44.527Z,19.75
2023-01-04T01:33:48.312Z,19.73
2023-01-04T01:34:50.143Z,19.49
2023-01-04T01:35:51.935Z,19.81
2023-01-04T01:36:53.824Z,19.07
2023-01-04T01:37:55.751Z,19.51
2023-01-04T01:38:57.552Z,19.39
2023-01-04T01:39:59.320Z,19.27
2023-01-04T01:41:01.139Z,19.84
2023-01-04T01:42:02.910Z,19.31
2023-01-04T01:43:06.523Z,19.45
2023-01-04T01:44:32.880Z,19.55
2023-01-04T01:45:34.776Z,19.11
2023-01-04T01:46:43.945Z,19.50
2023-01-04T01:47:49.730Z,19.44
2023-01-04T01:48:56.347Z,19.42
2023-01-04T01:49:58.224Z,19.86
2023-01-04T01:51:03.177Z,19.08
2023-01-04T01:52:14.712Z,19.76
2023-01-04T01:53:16.983Z,19.75
2023-01-04T01:54:26.832Z,19.75
2023-01-04T01:55:31.144Z,19.50
2023-01-04T01:56:36.239Z,19.21
2023-01-04T01:57:39.379Z,19.56
2023-01-04T01:58:46.052Z,19.36
2023-01-04T01:59:51.344Z,19.80
2023-01-04T02:00:53.095Z,19.46
2023-01-04T02:01:55.018Z,19.67
2023-01-04T02:03:16.289Z,19.68
2023-01-04T02:04:18.272Z,19.61
2023-01-04T02:05:21.547Z,19.50
2023-01-04T02:06:31.336Z,19.83
2023-01-04T02:07:33.846Z,19.83
2023-01-04T02:08:38.364Z,20.04
2023-01-04T02:09:40.910Z,19.74
2023-01-04T02:10:42.719Z,19.81
2023-01-04T02:11:44.505Z,19.35
2023-01-04T02:12:47.582Z,19.52
2023-01-04T02:14:08.784Z,19.97
2023-01-04T02:15:11.216Z,19.89
2023-01-04T02:16:40.528Z,19.41
2023-01-04T02:17:54.317Z,19.35
2023-01-04T02:19:11.890Z,19.88
2023-01-04T02:20:19.567Z,20.03
2023-01-04T02:21:31.185Z,19.81
2023-01-04T02:22:35.971Z,19.95
2023-01-04T02:23:49.703Z,19.54
2023-01-04T02:25:03.303Z,19.94
2023-01-04T02:26:43.123Z,19.85
2023-01-04T02:27:55.279Z,19.77
2023-01-04T02:29:24.364Z,19.79
2023-01-04T02:30:45.032Z,19.90
2023-01-04T02:32:08.013Z,19.89
2023-01-04T02:33:37.428Z,20.06
2023-01-04T02:34:45.696Z,19.29
2023-01-04T02:35:59.960Z,20.01
2023-01-04T02:37:20.361Z,19.82
2023-01-04T02:38:57.104Z,19.29
2023-01-04T02:40:20.563Z,19.41
2023-01-04T02:41:34.136Z,19.68
2023-01-04T02:43:31.011Z,19.72
2023-01-04T02:44:54.389Z,19.78
2023-01-04T02:46:02.468Z,19.26
2023-01-04T02:47:42.837Z,19.26
2023-01-04T02:49:03.063Z,19.61
2023-01-04T02:50:32.086Z,19.34
2023-01-04T02:51:36.606Z,19.64
2023-01-04T02:52:38.392Z,19.66
2023-01-04T02:53:41.911Z,19.81
2023-01-04T02:54:46.308Z,19.94
2023-01-04T02:56:10.299Z,20.15
2023-01-04T02:57:33.719Z,19.73
2023-01-04T02:58:44.236Z,19.41
2023-01-04T03:00:10.468Z,19.58
2023-01-04T03:01:43.564Z,19.58
2023-01-04T03:03:15.607Z,19.74
2023-01-04T03:04:39.298Z,19.43
2023-01-04T03:06:16.076Z,19.74
2023-01-04T03:07:38.900Z,19.35
2023-01-04T03:08:43.400Z,19.88
2023-01-04T03:09:49.796Z,19.66
2023-01-04T03:11:02.691Z,20.11
2023-01-04T03:12:29.489Z,20.08
2023-01-04T03:13:37.979Z,20.10
2023-01-04T03:14:45.808Z,19.67
2023-01-04T03:15:54.885Z,20.05
2023-01-04T03:16:57.153Z,19.82
2023-01-04T03:18:09.445Z,20.27
2023-01-04T03:19:12.828Z,19.73
2023-01-04T03:20:18.816Z,20.01
2023-01-04T03:21:25.087Z,20.11
2023-01-04T03:22:57.686Z,19.69
2023-01-04T03:24:19.003Z,20.04
2023-01-04T03:25:47.810Z,19.63
2023-01-04T03:27:18.424Z,19.99
2023-01-04T03:28:41.602Z,19.38
2023-01-04T03:30:28.833Z,19.56
2023-01-04T03:31:59.285Z,19.63
2023-01-04T03:33:28.283Z,19.83
2023-01-04T03:34:48.688Z,19.40
2023-01-04T03:36:20.149Z,19.98
2023-01-04T03:37:50.914Z,19.68
2023-01-04T03:39:19.249Z,19.91
2023-01-04T03:40:47.854Z,19.88
2023-01-04T03:42:24.429Z,19.65
2023-01-04T03:43:58.745Z,19.58
2023-01-04T03:45:26.087Z,19.88
2023-01-04T03:47:01.748Z,19.14
2023-01-04T03:48:56.043Z,19.22
2023-01-04T03:50:17.500Z,19.18
2023-01-04T03:51:25.321Z,19.37
2023-01-04T03:52:31.040Z,19.46
2023-01-04T03:53:49.961Z,19.96
2023-01-04T03:54:53.871Z,19.93
2023-01-04T03:55:58.405Z,19.62
2023-01-04T03:57:00.716Z,19.42
2023-01-04T03:58:02.539Z,19.54
2023-01-04T03:59:05.684Z,19.48
2023-01-04T04:00:14.182Z,19.64
2023-01-04T04:01:19.768Z,19.86
2023-01-04T04:02:28.945Z,19.48
2023-01-04T04:03:50.267Z,19.82
2023-01-04T04:05:10.835Z,19.63
2023-01-04T04:06:31.203Z,19.55
2023-01-04T04:07:51.511Z,19.44
2023-01-04T04:08:53.279Z,19.68
2023-01-04T04:09:55.114Z,19.83
2023-01-04T04:11:22.172Z,19.45
2023-01-04T04:12:24.002Z,19.33
2023-01-04T04:13:25.795Z,19.82
2023-01-04T04:14:27.678Z,19.86
2023-01-04T04:15:29.547Z,19.56
2023-01-04T04:16:31.416Z,19.68
2023-01-04T04:17:33.236Z,19.45
2023-01-04T04:18:35.001Z,19.50
2023-01-04T04:19:36.791Z,20.05
2023-01-04T04:20:38.718Z,19.41
2023-01-04T04:21:40.576Z,19.59
2023-01-04T04:22:42.425Z,19.96
2023-01-04T04:23:44.694Z,19.86
2023-01-04T04:24:46.454Z,19.98
2023-01-04T04:25:48.206Z,19.80
2023-01-04T04:26:50.906Z,19.83
2023-01-04T04:27:52.712Z,19.80
2023-01-04T04:28:54.464Z,20.04
2023-01-04T04:29:56.294Z,19.41
2023-01-04T04:30:58.168Z,19.81
2023-01-04T04:32:00.357Z,19.37
2023-01-04T04:33:02.203Z,19.81
2023-01-04T04:34:04.093Z,19.76
2023-01-04T04:35:06.218Z,19.66
2023-01-04T04:36:08.751Z,19.59
2023-01-04T04:37:10.660Z,19.37
2023-01-04T04:38:12.432Z,19.89
2023-01-04T04:39:14.497Z,20.01
2023-01-04T04:40:39.285Z,19.88
2023-01-04T04:41:41.881Z,19.66
2023-01-04T04:42:45.936Z,20.06
2023-01-04T04:43:47.893Z,20.05
2023-01-04T04:44:49.841Z,19.54
2023-01-04T04:45:51.701Z,19.25
2023-01-04T04:46:53.569Z,20.04
2023-01-04T04:47:55.347Z,19.84
2023-01-04T04:48:57.237Z,20.17
2023-01-04T04:49:59.016Z,19.77
2023-01-04T04:51:00.883Z,19.33
2023-01-04T04:52:02.729Z,19.73
2023-01-04T04:53:04.531Z,19.61
2023-01-04T04:54:08.253Z,20.11
2023-01-04T04:55:10.163Z,19.48
2023-01-04T04:56:12.003Z,19.98
2023-01-04T04:57:13.802Z,19.79
2023-01-04T04:58:15.625Z,19.67
2023-01-04T04:59:17.884Z,19.94
2023-01-04T05:00:19.667Z,19.66
2023-01-04T05:01:21.830Z,19.82
2023-01-04T05:02:23.809Z,19.51
2023-01-04T05:03:26.132Z,19.76
2023-01-04T05:04:28.035Z,20.13
2023-01-04T05:05:29.869Z,19.41
2023-01-04T05:06:31.678Z,19.53
2023-01-04T05:07:33.547Z,19.86
2023-01-04T05:08:35.965Z,20.05
2023-01-04T05:09:37.782Z,19.80
2023-01-04T05:10:39.780Z,19.40
2023-01-04T05:12:00.785Z,19.89
2023-01-04T05:13:02.661Z,19.29
2023-01-04T05:14:04.483Z,19.45
2023-01-04T05:15:06.710Z,19.99
2023-01-04T05:16:10.164Z,19.86
2023-01-04T05:17:12.043Z,19.94
2023-01-04T05:18:16.307Z,19.73
2023-01-04T05:19:18.473Z,19.57
2023-01-04T05:20:20.283Z,19.70
2023-01-04T05:21:22.053Z,20.24
2023-01-04T05:22:23.931Z,19.73
2023-01-04T05:23:25.894Z,19.75
2023-01-04T05:24:27.786Z,19.75
2023-01-04T05:25:29.713Z,19.62
2023-01-04T05:26:31.506Z,19.82
2023-01-04T05:27:33.359Z,20.14
2023-01-04T05:28:35.125Z,19.86
2023-01-04T05:29:55.268Z,19.49
2023-01-04T05:30:57.265Z,19.79
2023-01-04T05:31:59.126Z,19.76
2023-01-04T05:33:02.395Z,19.87
2023-01-04T05:34:04.320Z,19.58
2023-01-04T05:35:06.508Z,19.66
2023-01-04T05:36:08.331Z,19.74
2023-01-04T05:37:10.161Z,20.08
2023-01-04T05:38:12.048Z,19.57
2023-01-04T05:39:13.854Z,19.78
2023-01-04T05:40:15.832Z,19.44
2023-01-04T05:41:36.012Z,19.70
2023-01-04T05:42:37.859Z,19.59
2023-01-04T05:43:39.700Z,19.89
2023-01-04T05:44:41.555Z,19.76
2023-01-04T05:45:44.903Z,19.74
2023-01-04T05:46:46.788Z,19.73
2023-01-04T05:47:52.690Z,19.68
2023-01-04T05:48:54.543Z,19.89
2023-01-04T05:49:56.416Z,19.64
2023-01-04T05:50:58.197Z,20.16
2023-01-04T05:52:00.041Z,19.57
2023-01-04T05:53:01.908Z,19.50
2023-01-04T05:54:03.757Z,19.79
2023-01-04T05:55:06.044Z,19.75
2023-01-04T05:56:08.074Z,20.15
2023-01-04T05:57:10.388Z,19.98
2023-01-04T05:58:12.384Z,19.80
2023-01-04T05:59:15.179Z,19.83
2023-01-04T06:00:17.657Z,19.59
2023-01-04T06:01:19.454Z,19.96
2023-01-04T06:02:26.436Z,19.61
2023-01-04T06:03:28.332Z,19.87
2023-01-04T06:04:30.452Z,19.81
2023-01-04T06:05:32.269Z,19.91
2023-01-04T06:06:34.102Z,19.76
2023-01-04T06:07:35.961Z,19.87
2023-01-04T06:08:37.823Z,19.86
2023-01-04T06:09:40.238Z,19.79
2023-01-04T06:10:42.065Z,19.79
2023-01-04T06:11:43.894Z,20.23
2023-01-04T06:12:46.713Z,20.14
2023-01-04T06:13:48.491Z,19.70
2023-01-04T06:14:50.381Z,19.77
2023-01-04T06:15:52.145Z,19.88
2023-01-04T06:16:53.978Z,19.73
2023-01-04T06:17:55.863Z,19.81
2023-01-04T06:18:57.747Z,19.62
2023-01-04T06:19:59.638Z,19.78
2023-01-04T06:21:01.501Z,19.80
2023-01-04T06:22:03.727Z,19.97
2023-01-04T06:23:05.489Z,19.52
2023-01-04T06:24:07.561Z,19.73
2023-01-04T06:25:10.049Z,19.34
2023-01-04T06:26:11.824Z,19.30
2023-01-04T06:27:13.806Z,19.42
2023-01-04T06:28:15.577Z,19.04
2023-01-04T06:29:17.858Z,19.09
2023-01-04T06:30:19.713Z,19.71
2023-01-04T06:31:21.571Z,19.16
2023-01-04T06:32:23.389Z,19.02
2023-01-04T06:33:25.337Z,19.21
2023-01-04T06:34:31.156Z,19.22
2023-01-04T06:35:36.054Z,19.02
2023-01-04T06:36:41.034Z,19.05
2023-01-04T06:37:42.804Z,18.94
2023-01-04T06:38:44.732Z,19.10
2023-01-04T06:39:46.600Z,19.09
2023-01-04T06:40:48.359Z,18.93
2023-01-04T06:41:50.167Z,18.54
2023-01-04T06:42:51.951Z,18.81
2023-01-04T06:43:53.825Z,18.62
2023-01-04T06:44:55.665Z,19.07
2023-01-04T06:45:57.702Z,18.89
2023-01-04T06:46:59.589Z,18.54
2023-01-04T06:48:07.320Z,18.86
2023-01-04T06:49:11.000Z,18.62
2023-01-04T06:50:12.978Z,18.92
2023-01-04T06:51:14.849Z,18.81
2023-01-04T06:52:16.637Z,18.61
2023-01-04T06:53:18.473Z,18.56
2023-01-04T06:54:20.274Z,18.58
2023-01-04T06:55:22.289Z,18.60
2023-01-04T06:56:24.134Z,18.43
2023-01-04T06:57:26.010Z,18.92
2023-01-04T06:58:27.854Z,18.60
2023-01-04T06:59:29.694Z,18.50
2023-01-04T07:00:31.681Z,18.54
2023-01-04T07:01:33.586Z,18.53
2023-01-04T07:02:35.811Z,18.40
2023-01-04T07:03:37.743Z,18.28
2023-01-04T07:04:39.611Z,18.51
2023-01-04T07:05:41.469Z,18.47
2023-01-04T07:06:43.240Z,18.02
2023-01-04T07:07:45.033Z,18.52
2023-01-04T07:08:46.910Z,18.44
2023-01-04T07:09:48.719Z,18.80
2023-01-04T07:10:50.555Z,18.75
2023-01-04T07:11:52.391Z,18.57
2023-01-04T07:12:54.240Z,18.69
2023-01-04T07:13:56.179Z,18.54
2023-01-04T07:14:58.003Z,18.69
2023-01-04T07:15:59.842Z,18.54
2023-01-04T07:17:01.821Z,18.54
2023-01-04T07:18:03.669Z,18.47
2023-01-04T07:19:08.881Z,18.63
2023-01-04T07:20:11.152Z,18.72
2023-01-04T07:21:12.949Z,18.69
2023-01-04T07:22:14.856Z,18.78
2023-01-04T07:23:16.697Z,18.33
2023-01-04T07:24:18.547Z,18.56
2023-01-04T07:25:20.907Z,18.55
2023-01-04T07:26:22.674Z,18.48
2023-01-04T07:27:24.487Z,18.33
2023-01-04T07:28:44.757Z,18.61
2023-01-04T07:29:46.906Z,18.80
2023-01-04T07:30:48.821Z,18.68
2023-01-04T07:31:51.831Z,18.60
2023-01-04T07:32:54.890Z,18.69
2023-01-04T07:33:56.678Z,18.26
2023-01-04T07:34:58.515Z,18.65
2023-01-04T07:36:07.303Z,18.76
2023-01-04T07:37:13.313Z,18.46
2023-01-04T07:38:15.085Z,18.24
2023-01-04T07:39:18.487Z,18.67
2023-01-04T07:40:20.536Z,18.66
2023-01-04T07:41:22.371Z,18.52
2023-01-04T07:42:24.201Z,18.62
2023-01-04T07:43:28.156Z,18.39
2023-01-04T07:44:30.516Z,18.34
2023-01-04T07:45:33.424Z,19.00
2023-01-04T07:46:35.986Z,18.67
2023-01-04T07:47:37.778Z,18.54
2023-01-04T07:48:39.560Z,18.47
2023-01-04T07:49:41.366Z,18.85
2023-01-04T07:50:44.992Z,18.40
2023-01-04T07:51:48.151Z,18.60
2023-01-04T07:52:50.015Z,18.67
2023-01-04T07:53:51.869Z,18.91
2023-01-04T07:54:54.195Z,18.68
2023-01-04T07:55:58.027Z,18.77
2023-01-04T07:56:59.842Z,18.72
2023-01-04T07:58:01.616Z,18.88
2023-01-04T07:59:06.868Z,18.67
2023-01-04T08:00:09.323Z,18.59
2023-01-04T08:01:16.311Z,18.60
2023-01-04T08:02:18.464Z,18.73
2023-01-04T08:03:20.355Z,18.93
2023-01-04T08:04:25.234Z,18.76
2023-01-04T08:05:32.301Z,18.48
2023-01-04T08:06:35.623Z,18.62
2023-01-04T08:07:37.440Z,18.81
2023-01-04T08:08:39.752Z,18.64
2023-01-04T08:09:41.511Z,18.54
2023-01-04T08:10:43.287Z,18.83
2023-01-04T08:11:45.547Z,18.70
2023-01-04T08:12:47.335Z,18.76
2023-01-04T08:13:49.161Z,18.75
2023-01-04T08:14:51.003Z,18.75
2023-01-04T08:15:54.139Z,18.58
2023-01-04T08:16:55.943Z,18.81
2023-01-04T08:17:57.751Z,19.13
2023-01-04T08:19:02.021Z,18.76
2023-01-04T08:20:04.341Z,18.99
2023-01-04T08:21:09.709Z,18.89
2023-01-04T08:22:11.545Z,18.90
2023-01-04T08:23:13.354Z,18.81
2023-01-04T08:24:17.858Z,18.97
2023-01-04T08:25:19.769Z,18.93
2023-01-04T08:26:22.406Z,18.67
2023-01-04T08:27:24.268Z,18.70
2023-01-04T08:28:26.092Z,19.20
2023-01-04T08:29:34.353Z,18.94
2023-01-04T08:30:36.791Z,18.75
2023-01-04T08:31:39.593Z,18.83
2023-01-04T08:32:41.505Z,18.63
2023-01-04T08:33:44.330Z,18.88
2023-01-04T08:34:46.127Z,18.88
2023-01-04T08:35:47.894Z,18.68
2023-01-04T08:36:51.374Z,18.77
2023-01-04T08:37:53.168Z,18.97
2023-01-04T08:39:00.476Z,19.02
2023-01-04T08:40:03.428Z,18.94
2023-01-04T08:41:23.539Z,19.12
2023-01-04T08:42:31.529Z,18.79
2023-01-04T08:43:35.918Z,18.99
2023-01-04T08:44:38.208Z,18.85
2023-01-04T08:45:40.112Z,19.22
2023-01-04T08:46:42.471Z,18.78
2023-01-04T08:47:44.390Z,19.16
2023-01-04T08:48:46.362Z,18.93
2023-01-04T08:49:48.204Z,19.06
2023-01-04T08:50:50.050Z,18.83
2023-01-04T08:51:51.868Z,18.80
2023-01-04T08:52:53.624Z,19.18
2023-01-04T08:53:55.463Z,19.00
2023-01-04T08:54:57.230Z,18.89
2023-01-04T08:56:01.118Z,18.92
2023-01-04T08:57:03.000Z,19.21
2023-01-04T08:58:05.284Z,19.17
2023-01-04T08:59:07.869Z,18.89
2023-01-04T09:00:10.513Z,19.11
2023-01-04T09:01:12.443Z,19.22
2023-01-04T09:02:22.810Z,18.85
2023-01-04T09:03:24.859Z,19.14
2023-01-04T09:04:26.765Z,19.03
2023-01-04T09:05:28.915Z,19.26
2023-01-04T09:06:30.939Z,19.21
2023-01-04T09:07:33.310Z,19.27
2023-01-04T09:08:37.191Z,18.96
2023-01-04T09:09:38.992Z,19.11
2023-01-04T09:10:41.037Z,19.32
2023-01-04T09:11:42.899Z,19.43
2023-01-04T09:12:45.749Z,19.24
2023-01-04T09:13:48.693Z,19.04
2023-01-04T09:14:50.483Z,19.24
2023-01-04T09:15:52.294Z,19.26
2023-01-04T09:16:54.296Z,18.75
2023-01-04T09:18:30.515Z,19.26
2023-01-04T09:19:21.862Z,19.16
2023-01-04T09:20:24.280Z,19.17
2023-01-04T09:21:26.120Z,19.11
2023-01-04T09:22:28.564Z,19.27
2023-01-04T09:23:31.093Z,19.22
2023-01-04T09:24:34.056Z,19.33
2023-01-04T09:25:40.028Z,19.27
2023-01-04T09:26:41.852Z,19.08
2023-01-04T09:27:44.660Z,19.30
2023-01-04T09:28:46.654Z,19.42
2023-01-04T09:29:48.522Z,19.30
2023-01-04T09:30:50.351Z,19.28
2023-01-04T09:31:52.170Z,19.04
2023-01-04T09:32:54.291Z,19.21
2023-01-04T09:34:15.227Z,19.32
2023-01-04T09:35:18.597Z,19.41
2023-01-04T09:36:20.644Z,19.20
2023-01-04T09:37:22.505Z,19.38
2023-01-04T09:38:24.394Z,19.39
2023-01-04T09:39:30.408Z,19.22
2023-01-04T09:40:47.609Z,19.38
2023-01-04T09:41:52.092Z,19.36
2023-01-04T09:43:20.862Z,19.44
2023-01-04T09:46:09.642Z,19.10
2023-01-04T09:47:17.710Z,19.02
2023-01-04T09:48:26.973Z,19.04
2023-01-04T09:49:37.756Z,18.84
2023-01-04T09:50:51.859Z,19.21
2023-01-04T09:52:03.206Z,19.36
2023-01-04T09:53:09.825Z,19.49
2023-01-04T09:54:20.662Z,19.91
2023-01-04T09:55:38.138Z,19.07
2023-01-04T09:56:51.460Z,19.19
2023-01-04T09:57:57.905Z,19.60
2023-01-04T09:59:02.903Z,19.50
2023-01-04T10:00:19.934Z,19.37
2023-01-04T10:01:39.851Z,19.12
2023-01-04T10:02:56.226Z,19.60
2023-01-04T10:04:17.969Z,19.29
2023-01-04T10:05:23.999Z,19.02
2023-01-04T10:06:26.263Z,19.51
2023-01-04T10:07:33.496Z,19.51
2023-01-04T10:08:35.726Z,19.69
2023-01-04T10:09:37.561Z,19.77
2023-01-04T10:10:57.722Z,19.78
2023-01-04T10:12:05.656Z,19.24
2023-01-04T10:13:32.957Z,19.22
2023-01-04T10:14:46.801Z,19.41
2023-01-04T10:15:59.031Z,19.50
2023-01-04T10:17:20.466Z,19.46
2023-01-04T10:21:53.978Z,19.15
2023-01-04T10:23:18.589Z,19.44
2023-01-04T10:24:43.534Z,19.35
2023-01-04T10:25:48.359Z,19.13
2023-01-04T10:26:52.011Z,19.45
2023-01-04T10:28:15.119Z,19.55
2023-01-04T10:29:28.703Z,19.41
2023-01-04T10:30:55.360Z,19.55
2023-01-04T10:32:18.202Z,19.36
2023-01-04T10:33:25.654Z,19.76
2023-01-04T10:34:32.071Z,19.44
2023-01-04T10:35:35.990Z,19.69
2023-01-04T10:36:37.841Z,19.60
2023-01-04T10:37:39.991Z,19.51
2023-01-04T10:38:43.160Z,19.60
2023-01-04T10:39:46.172Z,19.94
2023-01-04T10:40:48.777Z,19.84
2023-01-04T10:42:48.549Z,19.79
2023-01-04T10:44:11.728Z,19.34
2023-01-04T10:45:27.386Z,19.59
2023-01-04T10:46:35.266Z,19.66
2023-01-04T10:47:42.802Z,19.64
2023-01-04T10:48:56.961Z,19.84
2023-01-04T10:50:03.375Z,19.47
2023-01-04T10:51:10.324Z,19.82
2023-01-04T10:52:16.650Z,19.61
2023-01-04T10:53:31.503Z,19.73
2023-01-04T10:54:36.013Z,19.77
2023-01-04T10:56:24.321Z,19.83
2023-01-04T10:57:14.236Z,20.10
2023-01-04T10:58:35.232Z,19.67
2023-01-04T11:00:02.998Z,19.97
2023-01-04T11:01:12.528Z,19.54
2023-01-04T11:02:23.679Z,19.68
2023-01-04T11:04:11.837Z,19.60
2023-01-04T11:05:20.938Z,19.91
2023-01-04T11:06:49.463Z,19.67
2023-01-04T11:08:01.491Z,19.76
2023-01-04T11:09:12.449Z,19.71
2023-01-04T11:10:20.736Z,19.60
2023-01-04T11:11:27.632Z,19.63
2023-01-04T11:12:29.631Z,19.66
2023-01-04T11:13:31.752Z,19.55
2023-01-04T11:14:37.534Z,19.91
2023-01-04T11:15:42.674Z,19.90
2023-01-04T11:16:48.464Z,19.61
2023-01-04T11:17:52.081Z,20.01
2023-01-04T11:18:53.919Z,19.79
2023-01-04T11:19:55.736Z,19.97
2023-01-04T11:20:57.862Z,19.56
2023-01-04T11:22:06.166Z,19.72
2023-01-04T11:23:14.413Z,19.59
2023-01-04T11:24:33.291Z,19.85
2023-01-04T11:25:50.348Z,19.57
2023-01-04T11:26:56.584Z,19.60
2023-01-04T11:28:22.359Z,19.57
2023-01-04T11:29:49.940Z,19.61
2023-01-04T11:31:05.605Z,19.32
2023-01-04T11:32:26.052Z,19.39
2023-01-04T11:33:28.428Z,19.64
2023-01-04T11:34:52.668Z,19.86
2023-01-04T11:35:57.031Z,19.35
2023-01-04T11:36:58.842Z,19.33
2023-01-04T11:38:11.794Z,19.46
2023-01-04T11:39:22.266Z,19.49
2023-01-04T11:40:25.293Z,19.60
2023-01-04T11:41:27.378Z,19.67
2023-01-04T11:42:29.522Z,19.62
2023-01-04T11:43:36.706Z,19.78
2023-01-04T11:44:38.754Z,19.81
2023-01-04T11:45:40.647Z,19.69
2023-01-04T11:46:42.454Z,19.56
2023-01-04T11:47:49.866Z,19.89
2023-01-04T11:48:53.137Z,19.71
2023-01-04T11:49:56.202Z,19.59
2023-01-04T11:50:58.060Z,19.69
2023-01-04T11:51:59.822Z,19.68
2023-01-04T11:53:02.258Z,19.71
2023-01-04T11:54:14.755Z,19.90
2023-01-04T11:55:17.942Z,19.53
2023-01-04T11:56:21.327Z,19.80
2023-01-04T11:57:23.139Z,19.93
2023-01-04T11:58:28.008Z,19.63
2023-01-04T11:59:30.123Z,19.63
2023-01-04T12:00:31.956Z,19.97
2023-01-04T12:01:37.345Z,19.54
2023-01-04T12:04:01.389Z,19.38
2023-01-04T12:05:06.460Z,19.58
2023-01-04T12:06:17.817Z,19.93
2023-01-04T12:07:26.733Z,19.49
2023-01-04T12:08:32.637Z,19.91
2023-01-04T12:09:35.018Z,19.84
2023-01-04T12:10:36.914Z,19.76
2023-01-04T12:11:42.389Z,19.66
2023-01-04T12:12:44.292Z,19.66
2023-01-04T12:13:46.261Z,19.66
2023-01-04T12:14:49.992Z,19.58
2023-01-04T12:16:03.761Z,19.80
2023-01-04T12:17:18.717Z,19.80
2023-01-04T12:18:28.654Z,19.34
2023-01-04T12:19:31.341Z,19.78
2023-01-04T12:20:33.208Z,19.80
2023-01-04T12:21:35.269Z,19.58
2023-01-04T12:22:39.461Z,19.57
2023-01-04T12:23:41.596Z,19.79
2023-01-04T12:24:45.794Z,19.76
2023-01-04T12:25:53.566Z,20.02
2023-01-04T12:26:55.854Z,19.66
2023-01-04T12:27:57.955Z,19.61
2023-01-04T12:29:24.696Z,19.64
2023-01-04T12:30:46.478Z,19.51
2023-01-04T12:32:00.931Z,19.63
2023-01-04T12:33:34.928Z,19.53
2023-01-04T12:34:42.564Z,19.67
2023-01-04T12:36:06.988Z,19.46
2023-01-04T12:37:10.755Z,19.41
2023-01-04T12:38:12.570Z,19.81
2023-01-04T12:39:14.359Z,19.77
2023-01-04T12:40:47.070Z,19.71
2023-01-04T12:42:01.094Z,19.79
2023-01-04T12:43:15.412Z,19.93
2023-01-04T12:44:39.161Z,19.67
2023-01-04T12:45:42.576Z,19.74
2023-01-04T12:47:03.087Z,19.44
2023-01-04T12:48:46.190Z,19.58
2023-01-04T12:49:56.938Z,19.41
2023-01-04T12:51:32.848Z,19.65
2023-01-04T12:54:32.045Z,19.47
2023-01-04T12:55:37.696Z,19.62
2023-01-04T12:57:17.954Z,19.71
2023-01-04T12:58:49.672Z,19.56
2023-01-04T12:59:55.392Z,19.38
2023-01-04T13:01:00.036Z,19.63
2023-01-04T13:02:23.415Z,19.78
2023-01-04T13:03:25.876Z,19.49
2023-01-04T13:04:41.116Z,19.79
2023-01-04T13:05:57.030Z,19.92
2023-01-04T13:07:08.729Z,19.70
2023-01-04T13:08:13.720Z,19.54
2023-01-04T13:09:25.019Z,20.06
2023-01-04T13:10:33.507Z,19.71
2023-01-04T13:11:54.326Z,19.61
2023-01-04T13:13:37.340Z,19.41
2023-01-04T13:14:52.081Z,19.50
2023-01-04T13:16:12.081Z,19.72
2023-01-04T13:17:14.038Z,19.69
2023-01-04T13:18:25.209Z,20.07
2023-01-04T13:19:29.247Z,19.59
2023-01-04T13:20:31.299Z,19.86
2023-01-04T13:21:39.487Z,19.48
2023-01-04T13:22:51.100Z,19.67
2023-01-04T13:24:00.416Z,19.84
2023-01-04T13:25:04.872Z,19.79
2023-01-04T13:26:31.523Z,19.56
2023-01-04T13:27:34.151Z,19.67
2023-01-04T13:28:36.844Z,19.78
2023-01-04T13:29:40.894Z,19.90
2023-01-04T13:30:42.809Z,19.80
2023-01-04T13:31:50.106Z,20.11
2023-01-04T13:33:24.136Z,20.05
2023-01-04T13:34:22.450Z,19.68
2023-01-04T13:35:24.262Z,19.90
2023-01-04T13:36:26.054Z,19.92
2023-01-04T13:37:48.529Z,19.77
2023-01-04T13:38:50.324Z,19.41
2023-01-04T13:40:02.569Z,19.70
2023-01-04T13:41:22.141Z,19.82
2023-01-04T13:42:27.532Z,19.62
2023-01-04T13:44:03.961Z,19.76
2023-01-04T13:45:24.014Z,19.64
2023-01-04T13:46:27.382Z,19.83
2023-01-04T13:47:34.304Z,19.55
2023-01-04T13:48:39.332Z,19.81
2023-01-04T13:49:41.502Z,19.73
2023-01-04T13:50:48.785Z,19.83
2023-01-04T13:51:52.693Z,19.81
2023-01-04T13:53:07.991Z,19.57
2023-01-04T13:54:22.647Z,19.67
2023-01-04T13:55:28.136Z,19.74
2023-01-04T13:56:32.999Z,19.49
2023-01-04T13:57:34.836Z,19.58
2023-01-04T13:58:36.657Z,20.01
2023-01-04T13:59:38.482Z,19.91
2023-01-04T14:00:56.111Z,19.62
2023-01-04T14:01:58.705Z,19.99
2023-01-04T14:03:13.764Z,19.85
2023-01-04T14:04:25.449Z,19.69
2023-01-04T14:05:27.281Z,19.74
2023-01-04T14:06:33.061Z,19.62
2023-01-04T14:07:34.922Z,19.51
2023-01-04T14:08:51.390Z,19.58
2023-01-04T14:09:57.949Z,19.44
2023-01-04T14:10:59.980Z,19.57
2023-01-04T14:12:12.801Z,19.76
2023-01-04T14:13:17.460Z,19.67
2023-01-04T14:14:21.946Z,19.58
2023-01-04T14:15:25.412Z,19.61
2023-01-04T14:16:27.275Z,19.75
2023-01-04T14:17:36.226Z,19.96
2023-01-04T14:18:38.023Z,19.74
2023-01-04T14:19:44.316Z,19.71
2023-01-04T14:20:46.233Z,19.98
2023-01-04T14:21:49.471Z,19.66
2023-01-04T14:22:56.352Z,19.82
2023-01-04T14:23:58.314Z,19.69
2023-01-04T14:25:10.171Z,19.95
2023-01-04T14:26:35.959Z,19.67
2023-01-04T14:27:40.812Z,19.87
2023-01-04T14:30:18.362Z,19.66
2023-01-04T14:31:22.351Z,19.55
2023-01-04T14:32:25.831Z,19.77
2023-01-04T14:33:36.709Z,19.78
2023-01-04T14:34:38.558Z,19.57
2023-01-04T14:35:46.323Z,19.76
2023-01-04T14:36:50.750Z,19.59